Time;durP1;ratioP1;P1;durP2;ratioP2;P2;SDS_P1;SDS_P2;PMS_P1;PMS_P2;Temp;Humidity;BMP_temperature;BMP_pressure;BME280_temperature;BME280_humidity;BME280_pressure;Samples;Min_cycle;Max_cycle;Signal;HPM_P1;HPM_P2
2022/10/16 00:00:33;;;;;;;7.55;1.85;;;12.80;99.90;;;;;;6177289;23;20036;-75
2022/10/16 00:02:58;;;;;;;7.45;1.70;;;12.80;99.90;;;;;;6151896;23;20047;-76
2022/10/16 00:05:24;;;;;;;11.77;2.20;;;12.80;99.90;;;;;;6125890;23;20453;-77
2022/10/16 00:07:50;;;;;;;5.63;1.60;;;12.80;99.90;;;;;;6177181;23;20041;-76
2022/10/16 00:10:15;;;;;;;7.78;1.50;;;12.80;99.90;;;;;;6179007;23;20311;-77
2022/10/16 00:12:41;;;;;;;8.50;1.38;;;12.80;99.90;;;;;;6179647;23;20073;-76
2022/10/16 00:15:07;;;;;;;6.30;1.77;;;12.80;99.90;;;;;;6148418;23;20020;-75
2022/10/16 00:17:33;;;;;;;5.32;1.50;;;12.80;99.90;;;;;;6152419;23;20021;-75
2022/10/16 00:19:58;;;;;;;7.03;1.50;;;12.70;99.90;;;;;;6152147;23;20476;-76
2022/10/16 00:22:24;;;;;;;7.90;1.70;;;12.70;99.90;;;;;;6151913;23;20021;-77
2022/10/16 00:24:50;;;;;;;6.22;2.13;;;12.70;99.90;;;;;;6171917;23;20221;-75
2022/10/16 00:27:16;;;;;;;10.18;2.30;;;12.70;99.90;;;;;;6186865;23;20029;-74
2022/10/16 00:29:42;;;;;;;6.05;1.25;;;12.70;99.90;;;;;;6191910;23;20530;-76
2022/10/16 00:32:09;;;;;;;7.40;1.55;;;12.70;99.90;;;;;;6183570;23;20041;-75
2022/10/16 00:34:35;;;;;;;9.35;1.52;;;12.70;99.90;;;;;;6151267;23;20048;-76
2022/10/16 00:37:00;;;;;;;5.68;1.45;;;12.70;99.90;;;;;;6149216;23;20024;-75
2022/10/16 00:39:26;;;;;;;5.32;1.90;;;12.80;99.90;;;;;;6177348;23;20031;-76
2022/10/16 00:41:52;;;;;;;9.38;1.73;;;12.70;99.90;;;;;;6177728;23;20017;-74
2022/10/16 00:44:47;;;;;;;7.55;1.52;;;12.70;99.90;;;;;;6179238;23;20025;-77
2022/10/16 00:47:30;;;;;;;10.00;1.50;;;12.80;99.90;;;;;;6177492;23;20017;-74
2022/10/16 00:50:07;;;;;;;4.95;1.30;;;12.70;99.90;;;;;;6176510;23;20044;-77
2022/10/16 00:52:33;;;;;;;6.00;1.70;;;12.70;99.90;;;;;;6175496;23;20060;-76
2022/10/16 00:55:01;;;;;;;6.35;1.50;;;12.70;99.90;;;;;;6178307;23;20025;-76
2022/10/16 00:57:27;;;;;;;5.63;1.30;;;12.80;99.90;;;;;;6177219;23;20013;-75
2022/10/16 00:59:53;;;;;;;4.20;1.30;;;12.70;99.90;;;;;;6178182;23;20358;-75
2022/10/16 01:02:19;;;;;;;5.95;1.80;;;12.80;99.90;;;;;;6176757;23;20017;-76
2022/10/16 01:04:48;;;;;;;13.32;2.63;;;12.80;99.90;;;;;;6178517;23;20017;-76
2022/10/16 01:07:37;;;;;;;10.50;1.88;;;12.80;99.90;;;;;;6178940;23;20021;-75
2022/10/16 01:10:15;;;;;;;8.73;1.88;;;12.80;99.90;;;;;;6176915;23;20099;-75
2022/10/16 01:13:02;;;;;;;8.65;1.40;;;12.90;99.90;;;;;;6180091;23;20346;-76
2022/10/16 01:15:37;;;;;;;8.88;1.63;;;12.90;99.90;;;;;;6150907;23;20096;-75
2022/10/16 01:18:25;;;;;;;8.05;1.52;;;13.00;99.90;;;;;;6176487;23;20025;-74
2022/10/16 01:20:58;;;;;;;3.58;1.33;;;13.00;99.90;;;;;;6110313;23;20503;-76
2022/10/16 01:23:24;;;;;;;;;;;13.00;99.90;;;;;;6177206;23;20013;-77
2022/10/16 01:26:04;;;;;;;6.13;1.52;;;13.10;99.90;;;;;;6154476;23;20347;-77
2022/10/16 01:28:38;;;;;;;6.35;1.70;;;13.10;99.90;;;;;;6180027;23;20403;-76
2022/10/16 01:31:04;;;;;;;7.18;1.42;;;13.10;99.90;;;;;;6177294;23;20033;-75
2022/10/16 01:33:43;;;;;;;6.55;2.22;;;13.10;99.90;;;;;;6154318;23;20024;-76
2022/10/16 01:36:30;;;;;;;7.60;1.50;;;13.10;99.90;;;;;;6182454;23;20045;-74
2022/10/16 01:39:01;;;;;;;6.28;1.42;;;13.10;99.90;;;;;;6182130;23;20060;-76
2022/10/16 01:41:38;;;;;;;4.13;1.52;;;13.20;99.90;;;;;;6152314;23;20088;-76
2022/10/16 01:44:16;;;;;;;3.67;1.35;;;13.20;99.90;;;;;;6180419;23;20029;-76
2022/10/16 01:46:45;;;;;;;7.45;1.50;;;13.30;99.90;;;;;;6178023;23;20016;-74
2022/10/16 01:49:12;;;;;;;5.70;1.60;;;13.30;99.90;;;;;;6178779;23;20044;-75
2022/10/16 01:51:38;;;;;;;7.20;1.58;;;13.30;99.90;;;;;;6176990;23;20017;-74
2022/10/16 01:54:07;;;;;;;3.67;1.60;;;13.20;99.90;;;;;;6154160;23;20576;-74
2022/10/16 01:56:34;;;;;;;4.85;1.77;;;13.20;99.90;;;;;;6193537;23;20009;-75
2022/10/16 01:59:18;;;;;;;7.63;1.95;;;13.10;99.90;;;;;;6198112;23;20023;-75
2022/10/16 02:01:51;;;;;;;4.78;1.60;;;13.10;99.90;;;;;;6180262;23;20025;-75
2022/10/16 02:04:43;;;;;;;5.80;1.73;;;13.10;99.90;;;;;;6181024;23;20013;-74
2022/10/16 02:07:10;;;;;;;7.37;1.70;;;13.10;99.90;;;;;;6178309;23;20021;-74
2022/10/16 02:09:36;;;;;;;8.07;1.85;;;13.10;99.90;;;;;;6178674;23;20417;-75
2022/10/16 02:12:10;;;;;;;4.28;1.80;;;13.00;99.90;;;;;;6151203;23;20365;-74
2022/10/16 02:14:38;;;;;;;7.05;1.80;;;13.00;99.90;;;;;;6180012;23;20020;-75
2022/10/16 02:17:16;;;;;;;7.03;2.33;;;13.10;99.90;;;;;;6152093;23;20116;-75
2022/10/16 02:19:43;;;;;;;4.10;1.90;;;13.10;99.90;;;;;;6180190;23;20021;-76
2022/10/16 02:22:17;;;;;;;5.90;1.95;;;13.00;99.90;;;;;;6178099;23;20029;-75
2022/10/16 02:25:01;;;;;;;7.55;2.30;;;13.00;99.90;;;;;;6181180;23;20334;-76
2022/10/16 02:28:00;;;;;;;5.18;1.50;;;13.00;99.90;;;;;;6178515;23;20016;-76
2022/10/16 02:30:32;;;;;;;5.15;2.00;;;13.00;99.90;;;;;;6179255;23;20048;-77
2022/10/16 02:33:00;;;;;;;6.90;2.13;;;13.00;99.90;;;;;;6180642;23;20027;-77
2022/10/16 02:35:27;;;;;;;7.25;1.90;;;13.00;99.90;;;;;;6178731;23;20048;-77
2022/10/16 02:37:54;;;;;;;5.88;2.05;;;13.00;99.90;;;;;;6180117;23;20048;-77
2022/10/16 02:40:21;;;;;;;4.40;1.70;;;12.90;99.90;;;;;;6179997;23;20072;-76
2022/10/16 02:42:51;;;;;;;7.28;1.60;;;13.00;99.90;;;;;;6152426;23;20010;-75
2022/10/16 02:45:18;;;;;;;8.45;2.17;;;13.00;99.90;;;;;;6178714;23;20021;-75
2022/10/16 02:47:47;;;;;;;3.08;1.75;;;13.00;99.90;;;;;;6179977;23;20024;-75
2022/10/16 02:50:13;;;;;;;4.22;2.08;;;13.00;99.90;;;;;;6179195;23;20040;-76
2022/10/16 02:52:39;;;;;;;6.10;2.33;;;12.90;99.90;;;;;;6179734;23;20017;-77
2022/10/16 02:55:05;;;;;;;7.13;2.20;;;12.90;99.90;;;;;;6179106;23;20460;-73
2022/10/16 02:57:31;;;;;;;5.28;1.95;;;12.80;99.90;;;;;;6180381;23;20389;-77
2022/10/16 02:59:57;;;;;;;6.07;1.80;;;12.80;99.90;;;;;;6179610;23;20021;-77
2022/10/16 03:02:23;;;;;;;5.93;1.58;;;12.80;99.90;;;;;;6177876;23;20017;-78
2022/10/16 03:04:49;;;;;;;5.43;1.90;;;12.70;99.90;;;;;;6180308;23;20031;-76
2022/10/16 03:07:15;;;;;;;5.30;1.50;;;12.70;99.90;;;;;;6180559;23;20024;-76
2022/10/16 03:09:40;;;;;;;6.03;1.92;;;12.60;99.90;;;;;;6154254;23;20021;-76
2022/10/16 03:12:06;;;;;;;6.93;1.77;;;12.50;99.90;;;;;;6153134;23;20017;-76
2022/10/16 03:14:32;;;;;;;4.63;2.00;;;12.50;99.90;;;;;;6196819;23;20013;-77
2022/10/16 03:16:58;;;;;;;4.25;1.65;;;12.50;99.90;;;;;;6196576;23;20009;-77
2022/10/16 03:19:24;;;;;;;7.10;2.33;;;12.50;99.90;;;;;;6198346;23;20049;-78
2022/10/16 03:21:49;;;;;;;3.80;1.25;;;12.50;99.90;;;;;;6199516;23;20021;-77
2022/10/16 03:24:15;;;;;;;5.47;2.05;;;12.50;99.90;;;;;;6199874;23;20397;-77
2022/10/16 03:26:41;;;;;;;6.13;1.63;;;12.50;99.90;;;;;;6203476;23;20025;-77
2022/10/16 03:29:06;;;;;;;4.75;1.40;;;12.50;99.90;;;;;;6189095;23;20027;-75
2022/10/16 03:31:32;;;;;;;4.47;2.22;;;12.50;99.90;;;;;;6164309;23;20463;-77
2022/10/16 03:33:58;;;;;;;4.50;1.63;;;12.60;99.90;;;;;;6180003;23;20032;-77
2022/10/16 03:36:23;;;;;;;4.28;1.73;;;12.50;99.90;;;;;;6176599;23;20045;-76
2022/10/16 03:38:49;;;;;;;7.40;1.85;;;12.60;99.90;;;;;;6175833;23;20017;-76
2022/10/16 03:41:15;;;;;;;5.57;1.50;;;12.60;99.90;;;;;;6178226;23;20100;-76
2022/10/16 03:43:40;;;;;;;6.85;1.70;;;12.70;99.90;;;;;;6153885;23;20019;-76
2022/10/16 03:46:06;;;;;;;7.15;1.70;;;12.60;99.90;;;;;;6177486;23;20021;-76
2022/10/16 03:48:32;;;;;;;3.17;1.38;;;12.70;99.90;;;;;;6152892;23;20017;-78
2022/10/16 03:50:58;;;;;;;4.15;1.27;;;12.80;99.90;;;;;;6178969;23;20069;-77
2022/10/16 03:53:24;;;;;;;4.47;1.25;;;12.80;99.90;;;;;;6177267;23;20017;-76
2022/10/16 03:55:49;;;;;;;7.68;1.60;;;12.90;99.90;;;;;;6180230;23;20031;-76
2022/10/16 03:58:15;;;;;;;7.30;1.52;;;12.90;99.90;;;;;;6177823;23;20349;-76
2022/10/16 04:00:42;;;;;;;4.45;1.38;;;13.00;99.90;;;;;;6151378;23;20027;-77
2022/10/16 04:03:07;;;;;;;4.57;1.42;;;13.00;99.90;;;;;;6177646;23;20587;-76
2022/10/16 04:05:33;;;;;;;7.93;1.65;;;12.90;99.90;;;;;;6178248;23;20339;-76
2022/10/16 04:07:59;;;;;;;4.57;1.38;;;12.90;99.90;;;;;;6178901;23;20114;-76
2022/10/16 04:10:24;;;;;;;7.25;1.52;;;13.00;99.90;;;;;;6128604;23;20445;-76
2022/10/16 04:12:50;;;;;;;4.57;1.80;;;13.00;99.90;;;;;;6178511;23;20103;-76
2022/10/16 04:15:16;;;;;;;5.10;1.75;;;13.00;99.90;;;;;;6177826;23;20021;-76
2022/10/16 04:17:41;;;;;;;5.07;1.73;;;12.90;99.90;;;;;;6179922;23;20033;-76
2022/10/16 04:20:07;;;;;;;6.10;2.05;;;13.00;99.90;;;;;;6151679;23;20025;-75
2022/10/16 04:22:33;;;;;;;6.97;1.75;;;13.00;99.90;;;;;;6177598;23;20052;-75
2022/10/16 04:24:58;;;;;;;5.72;1.60;;;13.00;99.90;;;;;;6152941;23;20052;-75
2022/10/16 04:27:24;;;;;;;8.05;1.90;;;13.10;99.90;;;;;;6177477;23;20413;-76
2022/10/16 04:29:50;;;;;;;8.00;1.83;;;13.00;99.90;;;;;;6151963;23;20040;-75
2022/10/16 04:32:16;;;;;;;16.92;2.22;;;13.00;99.90;;;;;;6177241;23;20029;-76
2022/10/16 04:34:41;;;;;;;8.65;1.75;;;13.10;99.90;;;;;;6177994;23;20020;-76
2022/10/16 04:37:07;;;;;;;6.78;1.80;;;13.00;99.90;;;;;;6177245;23;20021;-74
2022/10/16 04:39:33;;;;;;;5.47;1.70;;;13.00;99.90;;;;;;6153669;23;20441;-76
2022/10/16 04:41:58;;;;;;;6.13;1.70;;;12.90;99.90;;;;;;6151512;23;20450;-76
2022/10/16 04:44:24;;;;;;;7.80;1.90;;;13.00;99.90;;;;;;6151429;23;20457;-75
2022/10/16 04:46:51;;;;;;;5.38;1.50;;;12.90;99.90;;;;;;6149814;23;20514;-71
2022/10/16 04:49:17;;;;;;;3.92;1.90;;;12.90;99.90;;;;;;6141264;23;20029;-72
2022/10/16 04:51:42;;;;;;;5.40;1.70;;;12.80;99.90;;;;;;6147817;23;20048;-72
2022/10/16 04:54:09;;;;;;;7.63;2.25;;;12.80;99.90;;;;;;6148616;23;20036;-72
2022/10/16 04:56:42;;;;;;;4.70;1.60;;;12.80;99.90;;;;;;6148560;23;20093;-71
2022/10/16 04:59:08;;;;;;;;;;;12.80;99.90;;;;;;6149305;23;20025;-73
2022/10/16 05:01:33;;;;;;;4.72;1.60;;;12.80;99.90;;;;;;6148309;23;20360;-72
2022/10/16 05:03:59;;;;;;;5.15;1.83;;;12.80;99.90;;;;;;6147993;23;20025;-73
2022/10/16 05:06:25;;;;;;;5.38;1.90;;;12.80;99.90;;;;;;6147062;23;20073;-74
2022/10/16 05:08:50;;;;;;;5.93;2.42;;;12.80;99.90;;;;;;6148459;23;20029;-73
2022/10/16 05:11:17;;;;;;;6.78;2.22;;;12.80;99.90;;;;;;6121110;23;20479;-72
2022/10/16 05:13:43;;;;;;;7.63;2.35;;;12.80;99.90;;;;;;6153952;23;20020;-72
2022/10/16 05:16:09;;;;;;;5.78;2.45;;;12.80;99.90;;;;;;6139859;23;20026;-72
2022/10/16 05:18:35;;;;;;;6.38;2.42;;;12.70;99.90;;;;;;6147737;23;20064;-72
2022/10/16 05:21:00;;;;;;;5.00;2.53;;;12.80;99.90;;;;;;6149279;23;20073;-72
2022/10/16 05:23:26;;;;;;;10.15;2.38;;;12.80;99.90;;;;;;6122491;23;20017;-72
2022/10/16 05:25:54;;;;;;;6.05;2.60;;;12.70;99.90;;;;;;6123109;23;20025;-73
2022/10/16 05:28:19;;;;;;;3.90;2.30;;;12.80;99.90;;;;;;6148791;23;20468;-72
2022/10/16 05:30:45;;;;;;;6.78;2.78;;;12.70;99.90;;;;;;6148544;23;20101;-73
2022/10/16 05:33:11;;;;;;;6.97;3.03;;;12.80;99.90;;;;;;6147502;23;20022;-72
2022/10/16 05:35:36;;;;;;;5.43;2.70;;;12.70;99.90;;;;;;6147343;23;20329;-73
2022/10/16 05:38:02;;;;;;;8.95;2.95;;;12.70;99.90;;;;;;6145257;23;20049;-72
2022/10/16 05:40:28;;;;;;;7.00;2.90;;;12.70;99.90;;;;;;6121714;23;20323;-73
2022/10/16 05:42:56;;;;;;;9.40;3.40;;;12.70;99.90;;;;;;6121767;23;20030;-73
2022/10/16 05:45:22;;;;;;;7.88;2.88;;;12.60;99.90;;;;;;6145547;23;20024;-73
2022/10/16 05:47:48;;;;;;;6.70;2.88;;;12.60;99.90;;;;;;6147738;23;20033;-73
2022/10/16 05:50:14;;;;;;;7.03;3.42;;;12.60;99.90;;;;;;6145336;23;20097;-72
2022/10/16 05:52:40;;;;;;;6.40;2.90;;;12.60;99.90;;;;;;6119199;23;20025;-72
2022/10/16 05:55:06;;;;;;;9.68;3.38;;;12.60;99.90;;;;;;6121095;23;20017;-74
2022/10/16 05:57:32;;;;;;;7.85;3.28;;;12.70;99.90;;;;;;6147630;23;20044;-73
2022/10/16 05:59:57;;;;;;;9.30;2.88;;;12.60;99.90;;;;;;6145423;23;20029;-74
2022/10/16 06:02:23;;;;;;;8.55;2.90;;;12.60;99.90;;;;;;6144493;23;20017;-74
2022/10/16 06:04:51;;;;;;;7.32;2.70;;;12.70;99.90;;;;;;6146547;23;20041;-74
2022/10/16 06:07:16;;;;;;;12.55;3.85;;;12.60;99.90;;;;;;6144438;23;20021;-73
2022/10/16 06:09:42;;;;;;;11.05;2.97;;;12.60;99.90;;;;;;6147413;23;20025;-73
2022/10/16 06:12:07;;;;;;;9.93;2.92;;;12.60;99.90;;;;;;6146310;23;20028;-73
2022/10/16 06:14:33;;;;;;;10.15;3.00;;;12.70;99.90;;;;;;6121738;23;20032;-73
2022/10/16 06:16:59;;;;;;;9.00;3.58;;;12.60;99.90;;;;;;6122297;23;20048;-74
2022/10/16 06:19:24;;;;;;;8.35;2.92;;;12.60;99.90;;;;;;6147951;23;20549;-74
2022/10/16 06:21:51;;;;;;;7.97;2.55;;;12.60;99.90;;;;;;6121382;23;20045;-74
2022/10/16 06:24:17;;;;;;;11.82;3.42;;;12.70;99.90;;;;;;6121014;23;20033;-74
2022/10/16 06:26:42;;;;;;;9.50;2.85;;;12.60;99.90;;;;;;6147538;23;20088;-73
2022/10/16 06:29:08;;;;;;;7.20;2.72;;;12.60;99.90;;;;;;6147645;23;20030;-72
2022/10/16 06:31:35;;;;;;;9.43;2.72;;;12.70;99.90;;;;;;6121073;23;20327;-73
2022/10/16 06:34:04;;;;;;;12.50;3.17;;;12.70;99.90;;;;;;6148070;23;20061;-72
2022/10/16 06:36:30;;;;;;;7.45;2.15;;;12.70;99.90;;;;;;6120643;23;20021;-73
2022/10/16 06:38:56;;;;;;;5.82;2.33;;;12.80;99.90;;;;;;6148504;23;20024;-73
2022/10/16 06:41:23;;;;;;;8.00;2.25;;;12.80;99.90;;;;;;6146819;23;20020;-74
2022/10/16 06:43:49;;;;;;;8.90;2.70;;;12.80;99.90;;;;;;6151077;23;20453;-73
2022/10/16 06:46:17;;;;;;;9.07;2.55;;;12.80;99.90;;;;;;6149126;23;20116;-73
2022/10/16 06:48:43;;;;;;;6.85;2.47;;;12.80;99.90;;;;;;6146927;23;20230;-73
2022/10/16 06:51:15;;;;;;;5.50;2.22;;;12.80;99.90;;;;;;6096296;23;20029;-72
2022/10/16 06:53:44;;;;;;;7.65;2.30;;;12.80;99.90;;;;;;6127239;23;20014;-72
2022/10/16 06:56:19;;;;;;;6.68;2.55;;;12.70;99.90;;;;;;6154514;23;20029;-72
2022/10/16 06:58:45;;;;;;;7.70;2.70;;;12.70;99.90;;;;;;6150623;23;20469;-72
2022/10/16 07:01:12;;;;;;;8.00;2.88;;;12.70;99.90;;;;;;6144808;23;20021;-73
2022/10/16 07:03:41;;;;;;;8.75;2.42;;;12.70;99.90;;;;;;6147714;23;20369;-71
2022/10/16 07:06:09;;;;;;;5.18;2.20;;;12.70;99.90;;;;;;6145757;23;20057;-73
2022/10/16 07:08:37;;;;;;;9.13;2.67;;;12.80;99.90;;;;;;6147758;23;20045;-73
2022/10/16 07:11:05;;;;;;;6.00;2.47;;;12.80;99.90;;;;;;6147996;23;20073;-72
2022/10/16 07:13:33;;;;;;;6.78;2.55;;;12.80;99.90;;;;;;6148356;23;20021;-73
2022/10/16 07:16:05;;;;;;;6.05;2.50;;;12.70;99.90;;;;;;6146501;23;20509;-73
2022/10/16 07:18:32;;;;;;;8.18;3.15;;;12.70;99.90;;;;;;6145271;23;20033;-72
2022/10/16 07:21:15;;;;;;;7.45;2.60;;;12.80;99.90;;;;;;6147015;23;20088;-73
2022/10/16 07:23:41;;;;;;;11.48;4.50;;;12.70;99.90;;;;;;6120322;23;20028;-73
2022/10/16 07:26:08;;;;;;;8.48;4.18;;;12.70;99.90;;;;;;6149152;23;20103;-73
2022/10/16 07:28:34;;;;;;;9.40;3.67;;;12.70;99.90;;;;;;6148681;23;20316;-73
2022/10/16 07:31:02;;;;;;;7.72;2.70;;;12.70;99.90;;;;;;6143518;23;20520;-73
2022/10/16 07:33:28;;;;;;;8.88;3.03;;;12.70;99.90;;;;;;6149211;23;20013;-73
2022/10/16 07:35:54;;;;;;;5.57;2.40;;;12.80;99.90;;;;;;6146824;23;20036;-73
2022/10/16 07:38:21;;;;;;;6.65;3.03;;;12.80;99.90;;;;;;6144490;23;20021;-73
2022/10/16 07:40:47;;;;;;;6.63;3.80;;;12.90;99.90;;;;;;6148754;23;20022;-74
2022/10/16 07:43:14;;;;;;;7.03;3.22;;;12.90;99.90;;;;;;6147418;23;20025;-74
2022/10/16 07:45:50;;;;;;;7.75;3.53;;;12.90;99.90;;;;;;6147817;23;20473;-75
2022/10/16 07:48:17;;;;;;;10.52;4.18;;;13.00;99.90;;;;;;6146960;23;20021;-74
2022/10/16 07:50:43;;;;;;;6.07;4.07;;;13.10;99.90;;;;;;6147266;23;20080;-74
2022/10/16 07:53:09;;;;;;;10.98;4.18;;;13.20;99.90;;;;;;6144340;23;20017;-74
2022/10/16 07:55:34;;;;;;;8.18;3.25;;;13.30;99.90;;;;;;6148750;23;20028;-74
2022/10/16 07:58:00;;;;;;;7.85;3.38;;;13.30;99.90;;;;;;6147584;23;20467;-74
2022/10/16 08:00:26;;;;;;;10.18;3.20;;;13.30;99.90;;;;;;6147051;23;20345;-73
2022/10/16 08:02:51;;;;;;;7.75;3.65;;;13.30;99.90;;;;;;6144963;23;20211;-72
2022/10/16 08:05:17;;;;;;;7.03;2.60;;;13.30;99.90;;;;;;6146690;23;20501;-72
2022/10/16 08:07:48;;;;;;;5.57;2.38;;;13.30;99.90;;;;;;6146223;23;20017;-72
2022/10/16 08:10:19;;;;;;;6.90;2.53;;;13.30;99.90;;;;;;6146335;23;20462;-73
2022/10/16 08:12:48;;;;;;;14.52;3.00;;;13.40;99.90;;;;;;6121673;23;20021;-73
2022/10/16 08:15:13;;;;;;;8.88;2.38;;;13.40;99.90;;;;;;6147262;23;20029;-73
2022/10/16 08:17:39;;;;;;;6.93;2.17;;;13.40;99.90;;;;;;6147234;23;20024;-73
2022/10/16 08:20:05;;;;;;;8.75;2.70;;;13.30;99.90;;;;;;6145328;23;20027;-73
2022/10/16 08:22:31;;;;;;;9.40;2.40;;;13.30;99.90;;;;;;6144546;23;20519;-73
2022/10/16 08:24:57;;;;;;;11.85;2.65;;;13.30;99.90;;;;;;6147546;23;20492;-73
2022/10/16 08:27:23;;;;;;;7.78;2.70;;;13.40;99.90;;;;;;6145960;23;20044;-73
2022/10/16 08:29:49;;;;;;;9.05;2.70;;;13.30;99.90;;;;;;6147045;23;20021;-73
2022/10/16 08:32:15;;;;;;;11.18;2.67;;;13.30;99.90;;;;;;6118788;23;20036;-73
2022/10/16 08:34:41;;;;;;;8.75;2.90;;;13.30;99.90;;;;;;6147864;23;20093;-73
2022/10/16 08:37:07;;;;;;;10.82;3.22;;;13.30;99.90;;;;;;6142441;23;20033;-74
2022/10/16 08:39:33;;;;;;;10.00;2.60;;;13.40;99.90;;;;;;6147109;23;20458;-72
2022/10/16 08:42:02;;;;;;;9.50;3.47;;;13.50;99.90;;;;;;6145012;23;20472;-72
2022/10/16 08:44:30;;;;;;;11.90;5.40;;;13.70;99.90;;;;;;6121492;23;20302;-72
2022/10/16 08:47:19;;;;;;;12.73;6.30;;;13.80;99.90;;;;;;6116845;23;20039;-72
2022/10/16 08:49:58;;;;;;;9.32;3.55;;;13.80;99.90;;;;;;6143524;23;20017;-73
2022/10/16 08:52:29;;;;;;;10.23;2.75;;;14.00;99.90;;;;;;6118800;23;20108;-72
2022/10/16 08:54:56;;;;;;;6.80;2.78;;;14.10;99.90;;;;;;6146314;23;20073;-73
2022/10/16 08:57:24;;;;;;;9.23;2.70;;;14.10;99.90;;;;;;6145345;23;20026;-73
2022/10/16 08:59:51;;;;;;;8.95;2.65;;;14.20;99.90;;;;;;6147232;23;20032;-71
2022/10/16 09:02:26;;;;;;;10.23;2.70;;;14.20;99.90;;;;;;6145153;23;20460;-73
2022/10/16 09:05:28;;;;;;;9.10;2.78;;;14.30;99.90;;;;;;6145683;23;20361;-73
2022/10/16 09:08:05;;;;;;;9.80;2.55;;;14.30;99.90;;;;;;6145399;23;20059;-73
2022/10/16 09:10:46;;;;;;;11.18;3.08;;;14.30;99.90;;;;;;6145365;23;20030;-73
2022/10/16 09:13:37;;;;;;;10.82;2.63;;;14.40;99.90;;;;;;6146484;23;20036;-72
2022/10/16 09:16:27;;;;;;;12.95;3.10;;;14.50;99.90;;;;;;6143613;23;20025;-72
2022/10/16 09:19:03;;;;;;;11.18;2.75;;;14.40;99.90;;;;;;6147007;23;20362;-73
2022/10/16 09:21:31;;;;;;;10.07;2.60;;;14.50;99.90;;;;;;6122070;23;20022;-73
2022/10/16 09:24:13;;;;;;;10.60;3.03;;;14.70;99.90;;;;;;6118907;23;20029;-72
2022/10/16 09:26:39;;;;;;;8.15;2.42;;;14.80;99.90;;;;;;6145203;23;20100;-73
2022/10/16 09:29:04;;;;;;;12.18;2.78;;;14.90;99.90;;;;;;6147283;23;20025;-72
2022/10/16 09:31:30;;;;;;;10.10;2.78;;;15.00;99.90;;;;;;6121964;23;20013;-73
2022/10/16 09:34:00;;;;;;;11.85;2.38;;;15.10;99.90;;;;;;6147400;23;20086;-73
2022/10/16 09:36:34;;;;;;;8.77;2.55;;;15.10;99.90;;;;;;6143923;23;20022;-73
2022/10/16 09:39:08;;;;;;;9.75;2.72;;;15.10;99.90;;;;;;6147610;23;20025;-73
2022/10/16 09:41:40;;;;;;;12.63;2.65;;;15.20;99.90;;;;;;6146359;23;20028;-72
2022/10/16 09:44:16;;;;;;;10.95;2.38;;;15.20;99.90;;;;;;6147118;23;20044;-70
2022/10/16 09:46:42;;;;;;;9.68;2.55;;;15.20;99.90;;;;;;6120709;23;20088;-71
2022/10/16 09:49:26;;;;;;;12.35;2.40;;;15.30;99.90;;;;;;6148177;23;20060;-71
2022/10/16 09:52:04;;;;;;;7.80;2.17;;;15.30;99.90;;;;;;6146744;23;20033;-71
2022/10/16 09:54:30;;;;;;;11.23;2.30;;;15.30;99.90;;;;;;6147222;23;20021;-71
2022/10/16 09:57:07;;;;;;;10.45;2.13;;;15.40;99.90;;;;;;6148542;23;20056;-69
2022/10/16 09:59:33;;;;;;;12.25;2.35;;;15.40;99.90;;;;;;6148978;23;20220;-71
2022/10/16 10:02:09;;;;;;;11.20;2.30;;;15.50;99.90;;;;;;6148112;23;20021;-71
2022/10/16 10:04:49;;;;;;;9.43;2.45;;;15.60;99.90;;;;;;6121565;23;20032;-71
2022/10/16 10:07:34;;;;;;;14.25;2.42;;;15.70;99.90;;;;;;6146551;23;20025;-71
2022/10/16 10:10:04;;;;;;;12.20;2.35;;;15.70;99.90;;;;;;6148849;23;20104;-72
2022/10/16 10:12:33;;;;;;;12.20;2.42;;;15.80;99.90;;;;;;6121860;23;20020;-72
2022/10/16 10:15:06;;;;;;;11.57;3.03;;;16.00;99.90;;;;;;6122556;23;20017;-72
2022/10/16 10:17:31;;;;;;;;;;;16.20;99.90;;;;;;6148603;23;20024;-73
2022/10/16 10:20:37;;;;;;;18.67;3.30;;;16.20;99.90;;;;;;6145522;23;19920;-72
2022/10/16 10:23:26;;;;;;;8.90;2.50;;;16.20;99.90;;;;;;6147323;23;20477;-72
2022/10/16 10:25:59;;;;;;;14.05;3.10;;;16.00;99.90;;;;;;6145414;23;20022;-72
2022/10/16 10:28:48;;;;;;;12.25;2.72;;;16.00;99.90;;;;;;6147446;23;20314;-73
2022/10/16 10:31:59;;;;;;;14.95;3.85;;;15.90;99.90;;;;;;6141887;23;20340;-72
2022/10/16 10:34:43;;;;;;;13.77;2.80;;;15.90;99.90;;;;;;6113827;23;20018;-72
2022/10/16 10:37:31;;;;;;;24.27;3.00;;;15.90;99.90;;;;;;6132796;23;20032;-72
2022/10/16 10:40:30;;;;;;;13.32;3.17;;;15.90;99.90;;;;;;6119358;23;20513;-72
2022/10/16 10:43:10;;;;;;;14.57;3.45;;;15.90;99.90;;;;;;6145661;23;20335;-72
2022/10/16 10:45:46;;;;;;;12.05;3.13;;;15.90;99.90;;;;;;6120316;23;20025;-72
2022/10/16 10:48:36;;;;;;;17.92;3.40;;;15.80;99.90;;;;;;6146506;23;20113;-71
2022/10/16 10:51:11;;;;;;;16.55;2.47;;;15.80;99.90;;;;;;6147279;23;20037;-72
2022/10/16 10:54:16;;;;;;;16.88;3.08;;;15.80;99.90;;;;;;6148653;23;20028;-71
2022/10/16 10:56:56;;;;;;;16.88;2.78;;;15.80;99.90;;;;;;6116555;23;20477;-72
2022/10/16 10:59:49;;;;;;;17.35;3.13;;;15.70;99.90;;;;;;6116838;23;20092;-70
2022/10/16 11:02:21;;;;;;;21.48;3.22;;;15.70;99.90;;;;;;6146904;23;20269;-73
2022/10/16 11:05:16;;;;;;;17.15;3.20;;;15.70;99.90;;;;;;6148505;23;20037;-72
2022/10/16 11:08:08;;;;;;;15.80;2.90;;;15.80;99.90;;;;;;6114074;23;20033;-71
2022/10/16 11:10:59;;;;;;;15.48;3.10;;;15.90;99.90;;;;;;6145195;23;20017;-71
2022/10/16 11:13:38;;;;;;;15.70;4.05;;;15.90;99.90;;;;;;6140427;23;20034;-72
2022/10/16 11:16:17;;;;;;;12.70;2.47;;;15.90;99.90;;;;;;6118389;23;20127;-72
2022/10/16 11:19:18;;;;;;;12.60;2.45;;;15.90;99.90;;;;;;6148762;23;20045;-72
2022/10/16 11:21:51;;;;;;;11.02;2.55;;;16.00;99.90;;;;;;6145902;23;20040;-71
2022/10/16 11:24:37;;;;;;;11.18;2.10;;;16.00;99.90;;;;;;6145714;23;20028;-71
2022/10/16 11:27:07;;;;;;;14.57;2.58;;;16.10;99.90;;;;;;6121661;23;20481;-72
2022/10/16 11:29:49;;;;;;;11.98;2.45;;;16.10;99.90;;;;;;6115911;23;20076;-74
2022/10/16 11:32:24;;;;;;;16.23;3.83;;;16.20;99.90;;;;;;6119812;23;20286;-71
2022/10/16 11:34:57;;;;;;;13.35;2.97;;;16.30;99.90;;;;;;6122424;23;20029;-71
2022/10/16 11:37:36;;;;;;;14.77;2.90;;;16.30;99.90;;;;;;6145233;23;20048;-71
2022/10/16 11:40:34;;;;;;;20.08;2.85;;;16.40;99.90;;;;;;6118939;23;20029;-71
2022/10/16 11:43:34;;;;;;;18.80;2.92;;;16.40;99.90;;;;;;6120863;23;20055;-71
2022/10/16 11:46:12;;;;;;;12.27;2.55;;;16.50;99.90;;;;;;6145607;23;20104;-71
2022/10/16 11:49:11;;;;;;;11.20;2.60;;;16.40;99.90;;;;;;6149122;23;20415;-71
2022/10/16 11:51:57;;;;;;;15.68;2.42;;;16.40;99.90;;;;;;6147108;23;20496;-70
2022/10/16 11:54:52;;;;;;;16.52;3.72;;;16.40;99.90;;;;;;6147429;23;20137;-72
2022/10/16 11:57:23;;;;;;;10.52;1.95;;;16.50;99.90;;;;;;6147599;23;20031;-71
2022/10/16 12:00:16;;;;;;;13.43;2.95;;;16.50;99.90;;;;;;6147520;23;20393;-72
2022/10/16 12:02:59;;;;;;;10.57;2.53;;;16.50;99.90;;;;;;6103086;23;20032;-70
2022/10/16 12:05:36;;;;;;;12.73;2.25;;;16.50;99.90;;;;;;6120320;23;20410;-70
2022/10/16 12:08:15;;;;;;;10.95;2.15;;;16.40;99.90;;;;;;6122572;23;20044;-72
2022/10/16 12:10:46;;;;;;;14.00;2.63;;;16.50;99.90;;;;;;6147763;23;20021;-71
2022/10/16 12:13:36;;;;;;;14.15;2.65;;;16.40;99.90;;;;;;6148624;23;20037;-71
2022/10/16 12:16:12;;;;;;;12.02;2.47;;;16.40;99.90;;;;;;6131448;23;20068;-72
2022/10/16 12:18:39;;;;;;;17.60;2.47;;;16.40;99.90;;;;;;6147143;23;20065;-70
2022/10/16 12:21:06;;;;;;;14.15;2.05;;;16.40;99.90;;;;;;6145807;23;20041;-70
2022/10/16 12:23:47;;;;;;;11.93;2.28;;;16.40;99.90;;;;;;6147977;23;20014;-72
2022/10/16 12:26:13;;;;;;;9.77;2.40;;;16.40;99.90;;;;;;6119849;23;20060;-71
2022/10/16 12:28:40;;;;;;;12.40;2.45;;;16.50;99.90;;;;;;6147532;23;20017;-71
2022/10/16 12:31:09;;;;;;;13.98;2.53;;;16.40;99.90;;;;;;6145767;23;20504;-72
2022/10/16 12:33:41;;;;;;;10.40;2.20;;;16.40;99.90;;;;;;6121156;23;20021;-72
2022/10/16 12:36:38;;;;;;;11.03;2.80;;;16.50;99.90;;;;;;6147337;23;20565;-70
2022/10/16 12:39:03;;;;;;;11.40;2.00;;;16.50;99.90;;;;;;6139294;23;20249;-72
2022/10/16 12:41:32;;;;;;;12.23;3.13;;;16.40;99.90;;;;;;6148713;23;20036;-71
2022/10/16 12:44:01;;;;;;;10.52;2.30;;;16.40;99.90;;;;;;6147233;23;20076;-71
2022/10/16 12:46:39;;;;;;;14.35;2.45;;;16.30;99.90;;;;;;6144344;23;20017;-71
2022/10/16 12:49:13;;;;;;;14.48;2.15;;;16.10;99.90;;;;;;6120487;23;20028;-71
2022/10/16 12:51:41;;;;;;;11.80;2.83;;;16.10;99.90;;;;;;6148957;23;20065;-71
2022/10/16 12:54:07;;;;;;;11.57;2.45;;;16.00;99.90;;;;;;6120671;23;20025;-69
2022/10/16 12:56:35;;;;;;;18.42;3.00;;;15.90;99.90;;;;;;6146263;23;20481;-71
2022/10/16 12:59:30;;;;;;;13.23;2.38;;;15.90;99.90;;;;;;6145399;23;20535;-72
2022/10/16 13:02:24;;;;;;;13.30;2.15;;;15.90;99.90;;;;;;6114098;23;20025;-71
2022/10/16 13:05:08;;;;;;;12.00;2.20;;;15.90;99.90;;;;;;6149263;23;20104;-69